sensor_id;sensor_type;location;lat;lon;timestamp;P1;durP1;ratioP1;P2;durP2;ratioP2
20458;SDS011;10388;52.314;7.938;2023-11-18T00:01:58;15.37;;;10.87;;
20458;SDS011;10388;52.314;7.938;2023-11-18T00:04:29;15.03;;;11.33;;
20458;SDS011;10388;52.314;7.938;2023-11-18T00:07:00;13.83;;;10.87;;
20458;SDS011;10388;52.314;7.938;2023-11-18T00:09:31;15.37;;;11.00;;
20458;SDS011;10388;52.314;7.938;2023-11-18T00:12:01;17.67;;;12.50;;
20458;SDS011;10388;52.314;7.938;2023-11-18T00:14:34;19.23;;;12.43;;
20458;SDS011;10388;52.314;7.938;2023-11-18T00:17:04;20.00;;;13.73;;
20458;SDS011;10388;52.314;7.938;2023-11-18T00:19:34;17.10;;;12.47;;
20458;SDS011;10388;52.314;7.938;2023-11-18T00:22:06;19.07;;;12.90;;
20458;SDS011;10388;52.314;7.938;2023-11-18T00:24:36;17.47;;;13.20;;
20458;SDS011;10388;52.314;7.938;2023-11-18T00:27:07;19.57;;;13.03;;
20458;SDS011;10388;52.314;7.938;2023-11-18T00:29:38;18.67;;;13.73;;
20458;SDS011;10388;52.314;7.938;2023-11-18T00:32:09;17.73;;;12.37;;
20458;SDS011;10388;52.314;7.938;2023-11-18T00:34:40;18.67;;;13.20;;
20458;SDS011;10388;52.314;7.938;2023-11-18T00:37:10;21.87;;;14.40;;
20458;SDS011;10388;52.314;7.938;2023-11-18T00:39:41;23.23;;;14.93;;
20458;SDS011;10388;52.314;7.938;2023-11-18T00:42:11;21.20;;;14.40;;
20458;SDS011;10388;52.314;7.938;2023-11-18T00:44:42;23.17;;;15.63;;
20458;SDS011;10388;52.314;7.938;2023-11-18T00:47:13;23.50;;;16.20;;
20458;SDS011;10388;52.314;7.938;2023-11-18T00:49:43;22.87;;;14.73;;
20458;SDS011;10388;52.314;7.938;2023-11-18T00:52:14;22.23;;;16.03;;
20458;SDS011;10388;52.314;7.938;2023-11-18T00:54:44;24.23;;;15.40;;
20458;SDS011;10388;52.314;7.938;2023-11-18T00:57:15;23.53;;;15.07;;
20458;SDS011;10388;52.314;7.938;2023-11-18T00:59:47;23.13;;;15.37;;
20458;SDS011;10388;52.314;7.938;2023-11-18T01:02:20;23.13;;;15.27;;
20458;SDS011;10388;52.314;7.938;2023-11-18T01:09:17;23.30;;;15.00;;
20458;SDS011;10388;52.314;7.938;2023-11-18T01:15:41;25.53;;;15.27;;
20458;SDS011;10388;52.314;7.938;2023-11-18T01:21:16;28.13;;;16.63;;
20458;SDS011;10388;52.314;7.938;2023-11-18T01:30:39;27.67;;;15.83;;
20458;SDS011;10388;52.314;7.938;2023-11-18T01:33:30;27.60;;;17.03;;
20458;SDS011;10388;52.314;7.938;2023-11-18T01:36:29;31.67;;;16.27;;
20458;SDS011;10388;52.314;7.938;2023-11-18T01:39:43;31.50;;;16.10;;
20458;SDS011;10388;52.314;7.938;2023-11-18T01:59:02;39.63;;;16.97;;
20458;SDS011;10388;52.314;7.938;2023-11-18T02:05:25;36.43;;;17.30;;
20458;SDS011;10388;52.314;7.938;2023-11-18T02:08:17;40.83;;;18.60;;
20458;SDS011;10388;52.314;7.938;2023-11-18T02:14:47;36.10;;;16.80;;
20458;SDS011;10388;52.314;7.938;2023-11-18T02:18:25;66.20;;;21.43;;
20458;SDS011;10388;52.314;7.938;2023-11-18T02:27:27;68.20;;;19.77;;
20458;SDS011;10388;52.314;7.938;2023-11-18T02:33:07;54.90;;;19.27;;
20458;SDS011;10388;52.314;7.938;2023-11-18T02:41:10;48.50;;;21.17;;
20458;SDS011;10388;52.314;7.938;2023-11-18T02:44:08;45.70;;;20.90;;
20458;SDS011;10388;52.314;7.938;2023-11-18T02:46:59;66.73;;;21.20;;
20458;SDS011;10388;52.314;7.938;2023-11-18T02:56:31;58.23;;;21.50;;
20458;SDS011;10388;52.314;7.938;2023-11-18T02:59:59;50.43;;;21.27;;
20458;SDS011;10388;52.314;7.938;2023-11-18T03:03:11;69.13;;;22.83;;
20458;SDS011;10388;52.314;7.938;2023-11-18T03:06:08;76.77;;;24.23;;
20458;SDS011;10388;52.314;7.938;2023-11-18T03:09:01;92.90;;;24.93;;
20458;SDS011;10388;52.314;7.938;2023-11-18T03:11:46;68.33;;;22.73;;
20458;SDS011;10388;52.314;7.938;2023-11-18T03:14:55;48.30;;;21.90;;
20458;SDS011;10388;52.314;7.938;2023-11-18T03:31:42;66.53;;;25.03;;
20458;SDS011;10388;52.314;7.938;2023-11-18T03:37:37;44.80;;;21.83;;
20458;SDS011;10388;52.314;7.938;2023-11-18T03:40:30;44.70;;;22.83;;
20458;SDS011;10388;52.314;7.938;2023-11-18T03:43:35;44.30;;;23.13;;
20458;SDS011;10388;52.314;7.938;2023-11-18T04:00:10;79.50;;;22.10;;
20458;SDS011;10388;52.314;7.938;2023-11-18T04:03:17;58.70;;;19.27;;
20458;SDS011;10388;52.314;7.938;2023-11-18T04:06:31;40.33;;;17.43;;
20458;SDS011;10388;52.314;7.938;2023-11-18T04:27:31;47.07;;;17.40;;
20458;SDS011;10388;52.314;7.938;2023-11-18T04:32:58;42.80;;;16.07;;
20458;SDS011;10388;52.314;7.938;2023-11-18T04:35:36;50.17;;;17.53;;
20458;SDS011;10388;52.314;7.938;2023-11-18T04:38:13;45.27;;;16.17;;
20458;SDS011;10388;52.314;7.938;2023-11-18T04:40:53;51.37;;;16.83;;
20458;SDS011;10388;52.314;7.938;2023-11-18T04:43:27;80.70;;;20.40;;
20458;SDS011;10388;52.314;7.938;2023-11-18T04:46:21;60.37;;;17.63;;
20458;SDS011;10388;52.314;7.938;2023-11-18T04:52:46;58.73;;;17.37;;
20458;SDS011;10388;52.314;7.938;2023-11-18T04:55:28;100.40;;;19.20;;
20458;SDS011;10388;52.314;7.938;2023-11-18T04:58:06;63.30;;;17.23;;
20458;SDS011;10388;52.314;7.938;2023-11-18T05:03:41;32.67;;;15.23;;
20458;SDS011;10388;52.314;7.938;2023-11-18T05:06:12;29.77;;;14.80;;
20458;SDS011;10388;52.314;7.938;2023-11-18T05:09:00;71.37;;;18.90;;
20458;SDS011;10388;52.314;7.938;2023-11-18T05:11:38;40.80;;;16.00;;
20458;SDS011;10388;52.314;7.938;2023-11-18T05:14:12;61.17;;;17.17;;
20458;SDS011;10388;52.314;7.938;2023-11-18T05:23:50;41.53;;;16.23;;
20458;SDS011;10388;52.314;7.938;2023-11-18T05:29:20;29.43;;;15.20;;
20458;SDS011;10388;52.314;7.938;2023-11-18T05:32:40;67.53;;;19.07;;
20458;SDS011;10388;52.314;7.938;2023-11-18T05:35:34;43.30;;;15.87;;
20458;SDS011;10388;52.314;7.938;2023-11-18T05:40:53;64.57;;;18.73;;
20458;SDS011;10388;52.314;7.938;2023-11-18T05:43:27;41.23;;;16.97;;
20458;SDS011;10388;52.314;7.938;2023-11-18T05:45:59;46.33;;;17.63;;
20458;SDS011;10388;52.314;7.938;2023-11-18T05:48:50;60.60;;;18.17;;
20458;SDS011;10388;52.314;7.938;2023-11-18T05:51:23;56.40;;;17.83;;
20458;SDS011;10388;52.314;7.938;2023-11-18T05:53:58;43.43;;;17.63;;
20458;SDS011;10388;52.314;7.938;2023-11-18T05:56:29;86.33;;;21.07;;
20458;SDS011;10388;52.314;7.938;2023-11-18T05:59:00;64.30;;;20.00;;
20458;SDS011;10388;52.314;7.938;2023-11-18T06:01:32;49.77;;;18.73;;
20458;SDS011;10388;52.314;7.938;2023-11-18T06:04:03;57.30;;;20.20;;
20458;SDS011;10388;52.314;7.938;2023-11-18T06:06:34;63.90;;;21.37;;
20458;SDS011;10388;52.314;7.938;2023-11-18T06:09:04;69.77;;;21.17;;
20458;SDS011;10388;52.314;7.938;2023-11-18T06:11:38;54.53;;;24.20;;
20458;SDS011;10388;52.314;7.938;2023-11-18T06:14:11;56.03;;;24.23;;
20458;SDS011;10388;52.314;7.938;2023-11-18T06:16:42;37.67;;;22.13;;
20458;SDS011;10388;52.314;7.938;2023-11-18T06:19:13;64.80;;;22.97;;
20458;SDS011;10388;52.314;7.938;2023-11-18T06:21:44;45.80;;;20.03;;
20458;SDS011;10388;52.314;7.938;2023-11-18T06:24:16;61.63;;;21.23;;
20458;SDS011;10388;52.314;7.938;2023-11-18T06:26:48;46.63;;;20.93;;
20458;SDS011;10388;52.314;7.938;2023-11-18T06:29:19;44.83;;;21.03;;
20458;SDS011;10388;52.314;7.938;2023-11-18T06:31:49;47.83;;;20.30;;
20458;SDS011;10388;52.314;7.938;2023-11-18T06:34:20;44.70;;;20.13;;
20458;SDS011;10388;52.314;7.938;2023-11-18T06:36:51;45.57;;;20.83;;
20458;SDS011;10388;52.314;7.938;2023-11-18T06:39:21;42.00;;;19.97;;
20458;SDS011;10388;52.314;7.938;2023-11-18T06:41:59;36.83;;;19.07;;
20458;SDS011;10388;52.314;7.938;2023-11-18T06:44:29;45.33;;;20.10;;
20458;SDS011;10388;52.314;7.938;2023-11-18T06:47:00;44.30;;;20.80;;
20458;SDS011;10388;52.314;7.938;2023-11-18T06:49:32;45.90;;;20.40;;
20458;SDS011;10388;52.314;7.938;2023-11-18T06:52:06;43.70;;;21.33;;
20458;SDS011;10388;52.314;7.938;2023-11-18T06:54:42;42.37;;;19.87;;
20458;SDS011;10388;52.314;7.938;2023-11-18T06:57:13;41.53;;;20.87;;
20458;SDS011;10388;52.314;7.938;2023-11-18T06:59:44;46.40;;;20.77;;
20458;SDS011;10388;52.314;7.938;2023-11-18T07:02:15;49.70;;;21.10;;
20458;SDS011;10388;52.314;7.938;2023-11-18T07:04:45;52.13;;;22.73;;
20458;SDS011;10388;52.314;7.938;2023-11-18T07:07:16;49.00;;;22.07;;
20458;SDS011;10388;52.314;7.938;2023-11-18T07:09:46;51.03;;;22.50;;
20458;SDS011;10388;52.314;7.938;2023-11-18T07:12:17;49.83;;;22.50;;
20458;SDS011;10388;52.314;7.938;2023-11-18T07:14:49;40.30;;;20.47;;
20458;SDS011;10388;52.314;7.938;2023-11-18T07:17:19;48.87;;;22.40;;
20458;SDS011;10388;52.314;7.938;2023-11-18T07:19:50;42.87;;;21.47;;
20458;SDS011;10388;52.314;7.938;2023-11-18T07:22:21;48.00;;;22.63;;
20458;SDS011;10388;52.314;7.938;2023-11-18T07:24:51;43.47;;;20.70;;
20458;SDS011;10388;52.314;7.938;2023-11-18T07:27:22;49.10;;;21.77;;
20458;SDS011;10388;52.314;7.938;2023-11-18T07:29:53;47.63;;;21.33;;
20458;SDS011;10388;52.314;7.938;2023-11-18T07:32:23;44.47;;;21.27;;
20458;SDS011;10388;52.314;7.938;2023-11-18T07:34:54;44.93;;;20.83;;
20458;SDS011;10388;52.314;7.938;2023-11-18T07:37:25;46.87;;;21.07;;
20458;SDS011;10388;52.314;7.938;2023-11-18T07:39:56;44.70;;;21.13;;
20458;SDS011;10388;52.314;7.938;2023-11-18T07:42:31;48.63;;;21.77;;
20458;SDS011;10388;52.314;7.938;2023-11-18T07:45:04;42.97;;;20.30;;
20458;SDS011;10388;52.314;7.938;2023-11-18T07:47:47;47.80;;;21.57;;
20458;SDS011;10388;52.314;7.938;2023-11-18T07:50:18;45.97;;;21.57;;
20458;SDS011;10388;52.314;7.938;2023-11-18T07:52:49;51.50;;;22.47;;
20458;SDS011;10388;52.314;7.938;2023-11-18T07:55:20;44.30;;;21.43;;
20458;SDS011;10388;52.314;7.938;2023-11-18T07:57:53;47.17;;;21.00;;
20458;SDS011;10388;52.314;7.938;2023-11-18T08:00:24;44.47;;;21.27;;
20458;SDS011;10388;52.314;7.938;2023-11-18T08:02:54;43.93;;;21.43;;
20458;SDS011;10388;52.314;7.938;2023-11-18T08:05:25;40.43;;;21.83;;
20458;SDS011;10388;52.314;7.938;2023-11-18T08:08:01;51.23;;;20.80;;
20458;SDS011;10388;52.314;7.938;2023-11-18T08:10:32;44.70;;;21.87;;
20458;SDS011;10388;52.314;7.938;2023-11-18T08:13:07;40.83;;;22.10;;
20458;SDS011;10388;52.314;7.938;2023-11-18T08:15:38;45.77;;;22.57;;
20458;SDS011;10388;52.314;7.938;2023-11-18T08:18:09;42.47;;;21.97;;
20458;SDS011;10388;52.314;7.938;2023-11-18T08:20:40;42.17;;;21.13;;
20458;SDS011;10388;52.314;7.938;2023-11-18T08:23:11;39.00;;;20.67;;
20458;SDS011;10388;52.314;7.938;2023-11-18T08:25:41;39.50;;;20.10;;
20458;SDS011;10388;52.314;7.938;2023-11-18T08:28:12;45.43;;;21.57;;
20458;SDS011;10388;52.314;7.938;2023-11-18T08:30:43;39.57;;;21.27;;
20458;SDS011;10388;52.314;7.938;2023-11-18T08:33:14;37.37;;;20.57;;
20458;SDS011;10388;52.314;7.938;2023-11-18T08:35:45;40.17;;;21.20;;
20458;SDS011;10388;52.314;7.938;2023-11-18T08:38:16;43.00;;;21.03;;
20458;SDS011;10388;52.314;7.938;2023-11-18T08:40:47;39.10;;;19.77;;
20458;SDS011;10388;52.314;7.938;2023-11-18T08:43:20;40.47;;;20.37;;
20458;SDS011;10388;52.314;7.938;2023-11-18T08:45:51;40.70;;;19.73;;
20458;SDS011;10388;52.314;7.938;2023-11-18T08:48:21;36.07;;;21.20;;
20458;SDS011;10388;52.314;7.938;2023-11-18T08:50:53;36.13;;;20.33;;
20458;SDS011;10388;52.314;7.938;2023-11-18T08:53:23;41.13;;;20.77;;
20458;SDS011;10388;52.314;7.938;2023-11-18T08:55:56;42.73;;;20.37;;
20458;SDS011;10388;52.314;7.938;2023-11-18T08:58:26;39.33;;;20.17;;
20458;SDS011;10388;52.314;7.938;2023-11-18T09:01:04;36.77;;;19.30;;
20458;SDS011;10388;52.314;7.938;2023-11-18T09:03:35;35.50;;;20.20;;
20458;SDS011;10388;52.314;7.938;2023-11-18T09:06:06;35.90;;;19.43;;
20458;SDS011;10388;52.314;7.938;2023-11-18T09:08:48;39.67;;;21.10;;
20458;SDS011;10388;52.314;7.938;2023-11-18T09:11:24;34.77;;;19.30;;
20458;SDS011;10388;52.314;7.938;2023-11-18T09:13:59;31.60;;;19.10;;
20458;SDS011;10388;52.314;7.938;2023-11-18T09:16:30;36.50;;;19.07;;
20458;SDS011;10388;52.314;7.938;2023-11-18T09:19:03;35.07;;;17.73;;
20458;SDS011;10388;52.314;7.938;2023-11-18T09:21:36;32.40;;;18.93;;
20458;SDS011;10388;52.314;7.938;2023-11-18T09:24:06;33.57;;;19.30;;
20458;SDS011;10388;52.314;7.938;2023-11-18T09:26:42;30.40;;;18.27;;
20458;SDS011;10388;52.314;7.938;2023-11-18T09:29:14;31.03;;;18.17;;
20458;SDS011;10388;52.314;7.938;2023-11-18T09:31:47;30.47;;;18.20;;
20458;SDS011;10388;52.314;7.938;2023-11-18T09:34:18;30.20;;;18.33;;
20458;SDS011;10388;52.314;7.938;2023-11-18T09:36:56;31.80;;;17.97;;
20458;SDS011;10388;52.314;7.938;2023-11-18T09:41:18;30.80;;;17.67;;
20458;SDS011;10388;52.314;7.938;2023-11-18T09:43:48;31.87;;;17.30;;
20458;SDS011;10388;52.314;7.938;2023-11-18T09:46:23;28.53;;;17.27;;
20458;SDS011;10388;52.314;7.938;2023-11-18T09:49:01;27.87;;;17.17;;
20458;SDS011;10388;52.314;7.938;2023-11-18T09:51:44;29.67;;;16.97;;
20458;SDS011;10388;52.314;7.938;2023-11-18T09:54:20;26.13;;;16.77;;
20458;SDS011;10388;52.314;7.938;2023-11-18T09:57:07;25.80;;;16.80;;
20458;SDS011;10388;52.314;7.938;2023-11-18T10:02:24;26.57;;;17.13;;
20458;SDS011;10388;52.314;7.938;2023-11-18T10:04:59;28.47;;;16.73;;
20458;SDS011;10388;52.314;7.938;2023-11-18T10:07:31;22.73;;;15.43;;
20458;SDS011;10388;52.314;7.938;2023-11-18T10:10:06;23.47;;;15.20;;
20458;SDS011;10388;52.314;7.938;2023-11-18T10:12:45;22.43;;;15.37;;
20458;SDS011;10388;52.314;7.938;2023-11-18T10:15:22;20.27;;;14.87;;
20458;SDS011;10388;52.314;7.938;2023-11-18T10:17:55;22.03;;;15.20;;
20458;SDS011;10388;52.314;7.938;2023-11-18T10:23:12;18.63;;;13.93;;
20458;SDS011;10388;52.314;7.938;2023-11-18T10:25:49;18.93;;;13.13;;
20458;SDS011;10388;52.314;7.938;2023-11-18T10:28:33;17.43;;;13.47;;
20458;SDS011;10388;52.314;7.938;2023-11-18T10:31:06;18.00;;;12.97;;
20458;SDS011;10388;52.314;7.938;2023-11-18T10:33:39;17.33;;;12.23;;
20458;SDS011;10388;52.314;7.938;2023-11-18T10:36:19;16.20;;;11.50;;
20458;SDS011;10388;52.314;7.938;2023-11-18T10:38:53;17.43;;;12.60;;
20458;SDS011;10388;52.314;7.938;2023-11-18T10:41:30;16.90;;;12.10;;
20458;SDS011;10388;52.314;7.938;2023-11-18T10:44:06;15.53;;;10.70;;
20458;SDS011;10388;52.314;7.938;2023-11-18T10:46:53;16.37;;;10.97;;
20458;SDS011;10388;52.314;7.938;2023-11-18T10:49:24;15.60;;;11.13;;
20458;SDS011;10388;52.314;7.938;2023-11-18T10:52:06;13.90;;;10.80;;
20458;SDS011;10388;52.314;7.938;2023-11-18T10:54:49;14.43;;;10.60;;
20458;SDS011;10388;52.314;7.938;2023-11-18T10:57:24;13.57;;;10.43;;
20458;SDS011;10388;52.314;7.938;2023-11-18T10:59:58;13.60;;;10.40;;
20458;SDS011;10388;52.314;7.938;2023-11-18T11:02:33;13.27;;;9.33;;
20458;SDS011;10388;52.314;7.938;2023-11-18T11:05:09;14.03;;;10.07;;
20458;SDS011;10388;52.314;7.938;2023-11-18T11:07:49;12.63;;;9.93;;
20458;SDS011;10388;52.314;7.938;2023-11-18T11:10:21;12.40;;;9.43;;
20458;SDS011;10388;52.314;7.938;2023-11-18T11:13:00;12.23;;;9.63;;
20458;SDS011;10388;52.314;7.938;2023-11-18T11:15:32;15.47;;;8.90;;
20458;SDS011;10388;52.314;7.938;2023-11-18T11:18:05;12.30;;;8.87;;
20458;SDS011;10388;52.314;7.938;2023-11-18T11:20:47;12.17;;;8.63;;
20458;SDS011;10388;52.314;7.938;2023-11-18T11:23:30;12.17;;;9.17;;
20458;SDS011;10388;52.314;7.938;2023-11-18T11:27:00;10.10;;;8.17;;
20458;SDS011;10388;52.314;7.938;2023-11-18T11:29:29;12.00;;;8.10;;
20458;SDS011;10388;52.314;7.938;2023-11-18T11:32:29;11.00;;;7.53;;
20458;SDS011;10388;52.314;7.938;2023-11-18T11:35:10;11.37;;;7.80;;
20458;SDS011;10388;52.314;7.938;2023-11-18T11:37:52;11.68;;;9.00;;
20458;SDS011;10388;52.314;7.938;2023-11-18T11:40:24;11.13;;;7.73;;
20458;SDS011;10388;52.314;7.938;2023-11-18T11:42:59;9.90;;;7.57;;
20458;SDS011;10388;52.314;7.938;2023-11-18T11:45:35;9.77;;;7.67;;
20458;SDS011;10388;52.314;7.938;2023-11-18T11:48:06;10.23;;;7.87;;
20458;SDS011;10388;52.314;7.938;2023-11-18T11:50:47;8.73;;;7.33;;
20458;SDS011;10388;52.314;7.938;2023-11-18T11:53:20;9.40;;;7.40;;
20458;SDS011;10388;52.314;7.938;2023-11-18T11:55:53;11.50;;;7.73;;
20458;SDS011;10388;52.314;7.938;2023-11-18T11:58:35;11.30;;;7.30;;
20458;SDS011;10388;52.314;7.938;2023-11-18T12:01:21;10.33;;;7.60;;
20458;SDS011;10388;52.314;7.938;2023-11-18T12:04:05;7.50;;;6.80;;
20458;SDS011;10388;52.314;7.938;2023-11-18T12:06:43;9.00;;;6.80;;
20458;SDS011;10388;52.314;7.938;2023-11-18T12:09:16;10.30;;;7.53;;
20458;SDS011;10388;52.314;7.938;2023-11-18T12:11:51;8.20;;;7.03;;
20458;SDS011;10388;52.314;7.938;2023-11-18T12:14:22;10.50;;;7.43;;
20458;SDS011;10388;52.314;7.938;2023-11-18T12:17:08;9.87;;;7.47;;
20458;SDS011;10388;52.314;7.938;2023-11-18T12:19:39;8.93;;;7.27;;
20458;SDS011;10388;52.314;7.938;2023-11-18T12:22:19;8.07;;;7.03;;
20458;SDS011;10388;52.314;7.938;2023-11-18T12:27:44;9.20;;;7.30;;
20458;SDS011;10388;52.314;7.938;2023-11-18T12:32:59;45.47;;;8.00;;
20458;SDS011;10388;52.314;7.938;2023-11-18T12:41:36;9.87;;;6.87;;
20458;SDS011;10388;52.314;7.938;2023-11-18T12:44:15;10.50;;;7.40;;
20458;SDS011;10388;52.314;7.938;2023-11-18T12:46:49;9.10;;;7.00;;
20458;SDS011;10388;52.314;7.938;2023-11-18T12:49:21;9.33;;;6.70;;
20458;SDS011;10388;52.314;7.938;2023-11-18T12:51:55;9.63;;;6.97;;
20458;SDS011;10388;52.314;7.938;2023-11-18T12:54:27;10.50;;;7.27;;
20458;SDS011;10388;52.314;7.938;2023-11-18T12:57:00;8.77;;;7.27;;
20458;SDS011;10388;52.314;7.938;2023-11-18T12:59:31;8.30;;;7.13;;
20458;SDS011;10388;52.314;7.938;2023-11-18T13:02:06;8.10;;;6.97;;
20458;SDS011;10388;52.314;7.938;2023-11-18T13:04:48;9.60;;;6.97;;
20458;SDS011;10388;52.314;7.938;2023-11-18T13:07:19;9.80;;;6.83;;
20458;SDS011;10388;52.314;7.938;2023-11-18T13:09:54;8.67;;;6.37;;
20458;SDS011;10388;52.314;7.938;2023-11-18T13:12:25;8.70;;;7.10;;
20458;SDS011;10388;52.314;7.938;2023-11-18T13:14:57;11.73;;;7.33;;
20458;SDS011;10388;52.314;7.938;2023-11-18T13:17:28;11.70;;;7.63;;
20458;SDS011;10388;52.314;7.938;2023-11-18T13:20:11;9.53;;;6.60;;
20458;SDS011;10388;52.314;7.938;2023-11-18T13:22:45;9.40;;;7.10;;
20458;SDS011;10388;52.314;7.938;2023-11-18T13:25:18;9.87;;;7.10;;
20458;SDS011;10388;52.314;7.938;2023-11-18T13:27:49;9.30;;;7.23;;
20458;SDS011;10388;52.314;7.938;2023-11-18T13:30:20;9.17;;;7.03;;
20458;SDS011;10388;52.314;7.938;2023-11-18T13:32:50;8.93;;;6.90;;
20458;SDS011;10388;52.314;7.938;2023-11-18T13:35:22;7.83;;;6.60;;
20458;SDS011;10388;52.314;7.938;2023-11-18T13:37:53;8.33;;;6.33;;
20458;SDS011;10388;52.314;7.938;2023-11-18T13:40:24;9.27;;;7.27;;
20458;SDS011;10388;52.314;7.938;2023-11-18T13:43:01;11.30;;;7.17;;
20458;SDS011;10388;52.314;7.938;2023-11-18T13:45:38;9.90;;;6.87;;
20458;SDS011;10388;52.314;7.938;2023-11-18T13:48:12;9.17;;;7.07;;
20458;SDS011;10388;52.314;7.938;2023-11-18T13:50:43;11.27;;;7.40;;
20458;SDS011;10388;52.314;7.938;2023-11-18T13:53:14;11.53;;;7.37;;
20458;SDS011;10388;52.314;7.938;2023-11-18T13:55:45;10.07;;;7.50;;
20458;SDS011;10388;52.314;7.938;2023-11-18T13:58:18;9.13;;;6.57;;
20458;SDS011;10388;52.314;7.938;2023-11-18T14:00:49;8.50;;;6.37;;
20458;SDS011;10388;52.314;7.938;2023-11-18T14:03:21;9.23;;;7.47;;
20458;SDS011;10388;52.314;7.938;2023-11-18T14:05:57;8.27;;;6.80;;
20458;SDS011;10388;52.314;7.938;2023-11-18T14:08:29;9.87;;;7.13;;
20458;SDS011;10388;52.314;7.938;2023-11-18T14:10:59;10.90;;;7.80;;
20458;SDS011;10388;52.314;7.938;2023-11-18T14:13:30;8.27;;;6.77;;
20458;SDS011;10388;52.314;7.938;2023-11-18T14:16:02;8.37;;;7.17;;
20458;SDS011;10388;52.314;7.938;2023-11-18T14:18:34;12.37;;;6.93;;
20458;SDS011;10388;52.314;7.938;2023-11-18T14:21:06;9.07;;;6.50;;
20458;SDS011;10388;52.314;7.938;2023-11-18T14:23:36;10.60;;;7.77;;
20458;SDS011;10388;52.314;7.938;2023-11-18T14:26:07;7.90;;;6.90;;
20458;SDS011;10388;52.314;7.938;2023-11-18T14:28:38;12.00;;;8.10;;
20458;SDS011;10388;52.314;7.938;2023-11-18T14:31:09;8.67;;;7.03;;
20458;SDS011;10388;52.314;7.938;2023-11-18T14:33:41;9.40;;;7.30;;
20458;SDS011;10388;52.314;7.938;2023-11-18T14:36:12;12.00;;;7.70;;
20458;SDS011;10388;52.314;7.938;2023-11-18T14:38:42;12.00;;;8.07;;
20458;SDS011;10388;52.314;7.938;2023-11-18T14:41:14;10.37;;;7.27;;
20458;SDS011;10388;52.314;7.938;2023-11-18T14:43:45;9.73;;;6.93;;
20458;SDS011;10388;52.314;7.938;2023-11-18T14:46:16;8.40;;;7.10;;
20458;SDS011;10388;52.314;7.938;2023-11-18T14:48:48;11.67;;;7.07;;
20458;SDS011;10388;52.314;7.938;2023-11-18T14:51:19;9.50;;;7.90;;
20458;SDS011;10388;52.314;7.938;2023-11-18T14:53:51;10.43;;;7.20;;
20458;SDS011;10388;52.314;7.938;2023-11-18T14:56:22;10.03;;;6.93;;
20458;SDS011;10388;52.314;7.938;2023-11-18T14:58:55;9.97;;;6.83;;
20458;SDS011;10388;52.314;7.938;2023-11-18T15:01:27;8.03;;;6.80;;
20458;SDS011;10388;52.314;7.938;2023-11-18T15:03:59;9.03;;;6.60;;
20458;SDS011;10388;52.314;7.938;2023-11-18T15:06:29;9.33;;;7.17;;
20458;SDS011;10388;52.314;7.938;2023-11-18T15:09:00;12.17;;;6.63;;
20458;SDS011;10388;52.314;7.938;2023-11-18T15:11:33;11.73;;;6.87;;
20458;SDS011;10388;52.314;7.938;2023-11-18T15:14:04;8.93;;;6.30;;
20458;SDS011;10388;52.314;7.938;2023-11-18T15:16:37;7.73;;;6.50;;
20458;SDS011;10388;52.314;7.938;2023-11-18T15:19:08;8.53;;;6.60;;
20458;SDS011;10388;52.314;7.938;2023-11-18T15:21:41;6.30;;;5.53;;
20458;SDS011;10388;52.314;7.938;2023-11-18T15:24:12;8.80;;;6.00;;
20458;SDS011;10388;52.314;7.938;2023-11-18T15:26:44;6.00;;;5.10;;
20458;SDS011;10388;52.314;7.938;2023-11-18T15:29:14;8.23;;;5.77;;
20458;SDS011;10388;52.314;7.938;2023-11-18T15:31:45;6.77;;;5.40;;
20458;SDS011;10388;52.314;7.938;2023-11-18T15:34:16;7.27;;;4.83;;
20458;SDS011;10388;52.314;7.938;2023-11-18T15:36:49;6.77;;;4.73;;
20458;SDS011;10388;52.314;7.938;2023-11-18T15:39:21;5.80;;;4.67;;
20458;SDS011;10388;52.314;7.938;2023-11-18T15:41:53;5.87;;;4.20;;
20458;SDS011;10388;52.314;7.938;2023-11-18T15:44:24;6.00;;;4.97;;
20458;SDS011;10388;52.314;7.938;2023-11-18T15:46:58;6.37;;;5.10;;
20458;SDS011;10388;52.314;7.938;2023-11-18T15:49:29;6.53;;;4.63;;
20458;SDS011;10388;52.314;7.938;2023-11-18T15:51:59;7.17;;;5.40;;
20458;SDS011;10388;52.314;7.938;2023-11-18T15:54:32;5.80;;;4.50;;
20458;SDS011;10388;52.314;7.938;2023-11-18T15:57:03;7.47;;;5.10;;
20458;SDS011;10388;52.314;7.938;2023-11-18T15:59:34;8.67;;;5.47;;
20458;SDS011;10388;52.314;7.938;2023-11-18T16:02:05;6.57;;;5.40;;
20458;SDS011;10388;52.314;7.938;2023-11-18T16:04:35;9.93;;;7.03;;
20458;SDS011;10388;52.314;7.938;2023-11-18T16:07:06;7.53;;;6.33;;
20458;SDS011;10388;52.314;7.938;2023-11-18T16:09:37;6.53;;;5.10;;
20458;SDS011;10388;52.314;7.938;2023-11-18T16:12:08;8.87;;;5.30;;
20458;SDS011;10388;52.314;7.938;2023-11-18T16:14:39;5.83;;;4.60;;
20458;SDS011;10388;52.314;7.938;2023-11-18T16:17:10;5.43;;;4.17;;
20458;SDS011;10388;52.314;7.938;2023-11-18T16:19:41;6.83;;;4.63;;
20458;SDS011;10388;52.314;7.938;2023-11-18T16:22:12;5.67;;;3.73;;
20458;SDS011;10388;52.314;7.938;2023-11-18T16:24:43;6.00;;;4.33;;
20458;SDS011;10388;52.314;7.938;2023-11-18T16:27:14;4.43;;;4.03;;
20458;SDS011;10388;52.314;7.938;2023-11-18T16:29:44;5.10;;;3.47;;
20458;SDS011;10388;52.314;7.938;2023-11-18T16:32:15;3.83;;;3.47;;
20458;SDS011;10388;52.314;7.938;2023-11-18T16:34:45;4.77;;;4.07;;
20458;SDS011;10388;52.314;7.938;2023-11-18T16:37:16;5.73;;;3.77;;
20458;SDS011;10388;52.314;7.938;2023-11-18T16:39:47;3.63;;;3.20;;
20458;SDS011;10388;52.314;7.938;2023-11-18T16:42:21;3.57;;;3.13;;
20458;SDS011;10388;52.314;7.938;2023-11-18T16:44:57;3.83;;;3.07;;
20458;SDS011;10388;52.314;7.938;2023-11-18T16:47:29;5.63;;;3.07;;
20458;SDS011;10388;52.314;7.938;2023-11-18T16:50:00;3.63;;;3.17;;
20458;SDS011;10388;52.314;7.938;2023-11-18T16:52:30;5.20;;;2.87;;
20458;SDS011;10388;52.314;7.938;2023-11-18T16:55:01;3.13;;;2.83;;
20458;SDS011;10388;52.314;7.938;2023-11-18T16:57:32;3.23;;;2.90;;
20458;SDS011;10388;52.314;7.938;2023-11-18T17:00:05;5.00;;;3.63;;
20458;SDS011;10388;52.314;7.938;2023-11-18T17:02:52;3.13;;;2.80;;
20458;SDS011;10388;52.314;7.938;2023-11-18T17:05:25;3.10;;;2.80;;
20458;SDS011;10388;52.314;7.938;2023-11-18T17:07:57;3.23;;;2.83;;
20458;SDS011;10388;52.314;7.938;2023-11-18T17:10:28;4.70;;;3.03;;
20458;SDS011;10388;52.314;7.938;2023-11-18T17:12:59;4.63;;;3.20;;
20458;SDS011;10388;52.314;7.938;2023-11-18T17:15:30;3.50;;;2.50;;
20458;SDS011;10388;52.314;7.938;2023-11-18T17:18:01;3.27;;;2.70;;
20458;SDS011;10388;52.314;7.938;2023-11-18T17:20:32;3.47;;;2.67;;
20458;SDS011;10388;52.314;7.938;2023-11-18T17:23:02;3.57;;;3.03;;
20458;SDS011;10388;52.314;7.938;2023-11-18T17:25:33;4.43;;;2.90;;
20458;SDS011;10388;52.314;7.938;2023-11-18T17:28:03;4.00;;;3.00;;
20458;SDS011;10388;52.314;7.938;2023-11-18T17:30:34;4.23;;;2.90;;
20458;SDS011;10388;52.314;7.938;2023-11-18T17:33:07;3.40;;;3.10;;
20458;SDS011;10388;52.314;7.938;2023-11-18T17:35:37;5.47;;;3.20;;
20458;SDS011;10388;52.314;7.938;2023-11-18T17:38:08;3.87;;;3.00;;
20458;SDS011;10388;52.314;7.938;2023-11-18T17:40:38;3.63;;;3.27;;
20458;SDS011;10388;52.314;7.938;2023-11-18T17:43:09;4.10;;;3.50;;
20458;SDS011;10388;52.314;7.938;2023-11-18T17:45:40;3.63;;;3.07;;
20458;SDS011;10388;52.314;7.938;2023-11-18T17:48:11;4.50;;;3.40;;
20458;SDS011;10388;52.314;7.938;2023-11-18T17:50:42;4.53;;;3.60;;
20458;SDS011;10388;52.314;7.938;2023-11-18T17:53:12;4.50;;;3.57;;